sensor_id;sensor_type;location;lat;lon;timestamp;P1;durP1;ratioP1;P2;durP2;ratioP2
19891;SDS011;10108;50.142;8.724;2024-03-02T00:02:06;13.95;;;8.38;;
19891;SDS011;10108;50.142;8.724;2024-03-02T00:04:53;14.52;;;8.30;;
19891;SDS011;10108;50.142;8.724;2024-03-02T00:07:43;15.27;;;8.20;;
19891;SDS011;10108;50.142;8.724;2024-03-02T00:10:40;13.70;;;8.00;;
19891;SDS011;10108;50.142;8.724;2024-03-02T00:13:27;14.68;;;7.90;;
19891;SDS011;10108;50.142;8.724;2024-03-02T00:16:13;15.27;;;8.35;;
19891;SDS011;10108;50.142;8.724;2024-03-02T00:19:05;13.60;;;7.65;;
19891;SDS011;10108;50.142;8.724;2024-03-02T00:21:52;13.50;;;7.88;;
19891;SDS011;10108;50.142;8.724;2024-03-02T00:24:39;14.90;;;8.35;;
19891;SDS011;10108;50.142;8.724;2024-03-02T00:27:25;14.73;;;8.07;;
19891;SDS011;10108;50.142;8.724;2024-03-02T00:33:21;16.38;;;8.73;;
19891;SDS011;10108;50.142;8.724;2024-03-02T00:36:08;15.73;;;8.68;;
19891;SDS011;10108;50.142;8.724;2024-03-02T00:38:56;15.27;;;7.90;;
19891;SDS011;10108;50.142;8.724;2024-03-02T00:41:42;16.40;;;9.32;;
19891;SDS011;10108;50.142;8.724;2024-03-02T00:44:29;18.15;;;9.38;;
19891;SDS011;10108;50.142;8.724;2024-03-02T00:47:20;18.35;;;9.35;;
19891;SDS011;10108;50.142;8.724;2024-03-02T00:50:07;15.70;;;9.10;;
19891;SDS011;10108;50.142;8.724;2024-03-02T00:52:54;15.68;;;8.32;;
19891;SDS011;10108;50.142;8.724;2024-03-02T00:55:41;15.20;;;9.07;;
19891;SDS011;10108;50.142;8.724;2024-03-02T00:58:30;14.88;;;9.27;;
19891;SDS011;10108;50.142;8.724;2024-03-02T01:01:16;15.57;;;9.52;;
19891;SDS011;10108;50.142;8.724;2024-03-02T01:04:03;16.75;;;9.68;;
19891;SDS011;10108;50.142;8.724;2024-03-02T01:06:51;18.27;;;9.82;;
19891;SDS011;10108;50.142;8.724;2024-03-02T01:09:37;17.20;;;9.30;;
19891;SDS011;10108;50.142;8.724;2024-03-02T01:12:23;16.20;;;9.27;;
19891;SDS011;10108;50.142;8.724;2024-03-02T01:15:10;17.23;;;9.57;;
19891;SDS011;10108;50.142;8.724;2024-03-02T01:17:57;16.75;;;9.88;;
19891;SDS011;10108;50.142;8.724;2024-03-02T01:20:43;16.67;;;9.27;;
19891;SDS011;10108;50.142;8.724;2024-03-02T01:23:30;19.80;;;9.50;;
19891;SDS011;10108;50.142;8.724;2024-03-02T01:26:16;18.02;;;9.30;;
19891;SDS011;10108;50.142;8.724;2024-03-02T01:29:03;18.80;;;9.95;;
19891;SDS011;10108;50.142;8.724;2024-03-02T01:31:49;18.00;;;10.18;;
19891;SDS011;10108;50.142;8.724;2024-03-02T01:34:37;17.33;;;10.20;;
19891;SDS011;10108;50.142;8.724;2024-03-02T01:37:23;17.15;;;10.60;;
19891;SDS011;10108;50.142;8.724;2024-03-02T01:40:10;16.30;;;9.30;;
19891;SDS011;10108;50.142;8.724;2024-03-02T01:42:57;17.95;;;9.80;;
19891;SDS011;10108;50.142;8.724;2024-03-02T01:45:46;20.77;;;10.00;;
19891;SDS011;10108;50.142;8.724;2024-03-02T01:48:32;21.02;;;10.32;;
19891;SDS011;10108;50.142;8.724;2024-03-02T01:51:20;19.42;;;10.80;;
19891;SDS011;10108;50.142;8.724;2024-03-02T01:54:06;16.83;;;9.73;;
19891;SDS011;10108;50.142;8.724;2024-03-02T01:56:52;19.02;;;9.75;;
19891;SDS011;10108;50.142;8.724;2024-03-02T01:59:39;16.85;;;9.65;;
19891;SDS011;10108;50.142;8.724;2024-03-02T02:02:25;20.15;;;10.82;;
19891;SDS011;10108;50.142;8.724;2024-03-02T02:05:12;19.33;;;10.63;;
19891;SDS011;10108;50.142;8.724;2024-03-02T02:08:00;18.27;;;9.65;;
19891;SDS011;10108;50.142;8.724;2024-03-02T02:10:47;17.58;;;10.40;;
19891;SDS011;10108;50.142;8.724;2024-03-02T02:13:33;18.00;;;9.75;;
19891;SDS011;10108;50.142;8.724;2024-03-02T02:16:20;15.68;;;9.80;;
19891;SDS011;10108;50.142;8.724;2024-03-02T02:19:06;17.63;;;9.90;;
19891;SDS011;10108;50.142;8.724;2024-03-02T02:21:54;16.52;;;9.93;;
19891;SDS011;10108;50.142;8.724;2024-03-02T02:24:41;16.55;;;9.82;;
19891;SDS011;10108;50.142;8.724;2024-03-02T02:27:27;19.10;;;9.82;;
19891;SDS011;10108;50.142;8.724;2024-03-02T02:30:18;20.80;;;10.73;;
19891;SDS011;10108;50.142;8.724;2024-03-02T02:33:06;20.38;;;11.05;;
19891;SDS011;10108;50.142;8.724;2024-03-02T02:35:52;21.23;;;11.32;;
19891;SDS011;10108;50.142;8.724;2024-03-02T02:38:39;18.60;;;10.90;;
19891;SDS011;10108;50.142;8.724;2024-03-02T02:41:29;18.90;;;11.32;;
19891;SDS011;10108;50.142;8.724;2024-03-02T02:44:16;20.80;;;11.18;;
19891;SDS011;10108;50.142;8.724;2024-03-02T02:47:02;22.85;;;12.43;;
19891;SDS011;10108;50.142;8.724;2024-03-02T02:49:49;20.60;;;10.77;;
19891;SDS011;10108;50.142;8.724;2024-03-02T02:52:36;20.02;;;11.27;;
19891;SDS011;10108;50.142;8.724;2024-03-02T02:55:25;22.50;;;11.90;;
19891;SDS011;10108;50.142;8.724;2024-03-02T02:58:12;22.52;;;12.20;;
19891;SDS011;10108;50.142;8.724;2024-03-02T03:00:58;23.67;;;12.05;;
19891;SDS011;10108;50.142;8.724;2024-03-02T03:03:45;21.25;;;11.60;;
19891;SDS011;10108;50.142;8.724;2024-03-02T03:06:31;20.00;;;11.25;;
19891;SDS011;10108;50.142;8.724;2024-03-02T03:09:18;24.83;;;12.73;;
19891;SDS011;10108;50.142;8.724;2024-03-02T03:12:04;23.25;;;12.10;;
19891;SDS011;10108;50.142;8.724;2024-03-02T03:14:51;23.48;;;12.80;;
19891;SDS011;10108;50.142;8.724;2024-03-02T03:17:37;23.73;;;12.57;;
19891;SDS011;10108;50.142;8.724;2024-03-02T03:20:24;22.80;;;12.27;;
19891;SDS011;10108;50.142;8.724;2024-03-02T03:23:10;21.52;;;12.25;;
19891;SDS011;10108;50.142;8.724;2024-03-02T03:26:01;22.73;;;12.63;;
19891;SDS011;10108;50.142;8.724;2024-03-02T03:28:47;23.35;;;12.80;;
19891;SDS011;10108;50.142;8.724;2024-03-02T03:31:33;21.88;;;12.35;;
19891;SDS011;10108;50.142;8.724;2024-03-02T03:34:20;23.60;;;12.23;;
19891;SDS011;10108;50.142;8.724;2024-03-02T03:37:06;26.40;;;13.43;;
19891;SDS011;10108;50.142;8.724;2024-03-02T03:39:53;24.83;;;13.55;;
19891;SDS011;10108;50.142;8.724;2024-03-02T03:42:39;21.70;;;12.15;;
19891;SDS011;10108;50.142;8.724;2024-03-02T03:45:26;24.42;;;13.50;;
19891;SDS011;10108;50.142;8.724;2024-03-02T03:48:12;25.35;;;13.18;;
19891;SDS011;10108;50.142;8.724;2024-03-02T03:50:58;23.60;;;12.75;;
19891;SDS011;10108;50.142;8.724;2024-03-02T03:53:45;26.42;;;13.35;;
19891;SDS011;10108;50.142;8.724;2024-03-02T03:56:31;27.42;;;13.90;;
19891;SDS011;10108;50.142;8.724;2024-03-02T03:59:18;22.67;;;13.63;;
19891;SDS011;10108;50.142;8.724;2024-03-02T04:02:04;23.40;;;13.57;;
19891;SDS011;10108;50.142;8.724;2024-03-02T04:04:50;23.38;;;13.27;;
19891;SDS011;10108;50.142;8.724;2024-03-02T04:07:37;25.45;;;14.77;;
19891;SDS011;10108;50.142;8.724;2024-03-02T04:10:26;26.60;;;13.75;;
19891;SDS011;10108;50.142;8.724;2024-03-02T04:13:12;23.15;;;12.98;;
19891;SDS011;10108;50.142;8.724;2024-03-02T04:15:59;22.73;;;13.15;;
19891;SDS011;10108;50.142;8.724;2024-03-02T04:18:45;26.27;;;13.90;;
19891;SDS011;10108;50.142;8.724;2024-03-02T04:21:32;24.70;;;13.50;;
19891;SDS011;10108;50.142;8.724;2024-03-02T04:24:18;23.75;;;13.68;;
19891;SDS011;10108;50.142;8.724;2024-03-02T04:27:04;24.13;;;12.48;;
19891;SDS011;10108;50.142;8.724;2024-03-02T04:29:51;26.30;;;14.05;;
19891;SDS011;10108;50.142;8.724;2024-03-02T04:32:37;27.13;;;14.63;;
19891;SDS011;10108;50.142;8.724;2024-03-02T04:35:24;24.63;;;12.88;;
19891;SDS011;10108;50.142;8.724;2024-03-02T04:38:11;24.63;;;12.60;;
19891;SDS011;10108;50.142;8.724;2024-03-02T04:40:57;25.88;;;13.63;;
19891;SDS011;10108;50.142;8.724;2024-03-02T04:43:44;25.42;;;13.82;;
19891;SDS011;10108;50.142;8.724;2024-03-02T04:46:31;22.30;;;13.23;;
19891;SDS011;10108;50.142;8.724;2024-03-02T04:49:17;24.52;;;13.30;;
19891;SDS011;10108;50.142;8.724;2024-03-02T04:52:04;24.85;;;13.50;;
19891;SDS011;10108;50.142;8.724;2024-03-02T04:54:50;22.92;;;12.77;;
19891;SDS011;10108;50.142;8.724;2024-03-02T04:57:55;28.20;;;13.57;;
19891;SDS011;10108;50.142;8.724;2024-03-02T05:00:42;26.10;;;13.82;;
19891;SDS011;10108;50.142;8.724;2024-03-02T05:03:28;24.05;;;13.60;;
19891;SDS011;10108;50.142;8.724;2024-03-02T05:06:15;23.90;;;13.65;;
19891;SDS011;10108;50.142;8.724;2024-03-02T05:09:01;23.13;;;13.20;;
19891;SDS011;10108;50.142;8.724;2024-03-02T05:11:48;28.38;;;15.00;;
19891;SDS011;10108;50.142;8.724;2024-03-02T05:14:45;23.45;;;13.10;;
19891;SDS011;10108;50.142;8.724;2024-03-02T05:17:32;25.52;;;13.23;;
19891;SDS011;10108;50.142;8.724;2024-03-02T05:20:18;23.05;;;13.07;;
19891;SDS011;10108;50.142;8.724;2024-03-02T05:23:05;23.52;;;12.43;;
19891;SDS011;10108;50.142;8.724;2024-03-02T05:25:51;26.35;;;13.80;;
19891;SDS011;10108;50.142;8.724;2024-03-02T05:28:38;25.95;;;14.10;;
19891;SDS011;10108;50.142;8.724;2024-03-02T05:31:24;25.05;;;13.82;;
19891;SDS011;10108;50.142;8.724;2024-03-02T05:34:11;25.58;;;13.80;;
19891;SDS011;10108;50.142;8.724;2024-03-02T05:36:57;23.15;;;12.88;;
19891;SDS011;10108;50.142;8.724;2024-03-02T05:39:44;24.05;;;13.18;;
19891;SDS011;10108;50.142;8.724;2024-03-02T05:42:30;23.90;;;12.40;;
19891;SDS011;10108;50.142;8.724;2024-03-02T05:45:16;24.02;;;13.48;;
19891;SDS011;10108;50.142;8.724;2024-03-02T05:48:03;28.90;;;13.95;;
19891;SDS011;10108;50.142;8.724;2024-03-02T05:50:50;22.33;;;13.63;;
19891;SDS011;10108;50.142;8.724;2024-03-02T05:53:36;25.00;;;14.15;;
19891;SDS011;10108;50.142;8.724;2024-03-02T05:56:24;24.05;;;13.27;;
19891;SDS011;10108;50.142;8.724;2024-03-02T05:59:10;25.98;;;13.48;;
19891;SDS011;10108;50.142;8.724;2024-03-02T06:02:00;28.25;;;14.32;;
19891;SDS011;10108;50.142;8.724;2024-03-02T06:04:46;28.00;;;14.27;;
19891;SDS011;10108;50.142;8.724;2024-03-02T06:07:32;24.42;;;12.52;;
19891;SDS011;10108;50.142;8.724;2024-03-02T06:10:19;22.80;;;13.05;;
19891;SDS011;10108;50.142;8.724;2024-03-02T06:13:06;26.65;;;14.45;;
19891;SDS011;10108;50.142;8.724;2024-03-02T06:15:53;31.52;;;18.42;;
19891;SDS011;10108;50.142;8.724;2024-03-02T06:18:39;26.95;;;16.10;;
19891;SDS011;10108;50.142;8.724;2024-03-02T06:21:29;26.38;;;14.75;;
19891;SDS011;10108;50.142;8.724;2024-03-02T06:24:15;25.33;;;14.57;;
19891;SDS011;10108;50.142;8.724;2024-03-02T06:27:02;26.05;;;14.13;;
19891;SDS011;10108;50.142;8.724;2024-03-02T06:29:48;25.92;;;13.15;;
19891;SDS011;10108;50.142;8.724;2024-03-02T06:32:35;25.00;;;12.77;;
19891;SDS011;10108;50.142;8.724;2024-03-02T06:35:21;26.40;;;13.52;;
19891;SDS011;10108;50.142;8.724;2024-03-02T06:38:07;21.75;;;12.68;;
19891;SDS011;10108;50.142;8.724;2024-03-02T06:40:54;24.35;;;13.45;;
19891;SDS011;10108;50.142;8.724;2024-03-02T06:43:43;26.02;;;13.02;;
19891;SDS011;10108;50.142;8.724;2024-03-02T06:46:29;23.88;;;13.45;;
19891;SDS011;10108;50.142;8.724;2024-03-02T06:49:16;25.17;;;13.93;;
19891;SDS011;10108;50.142;8.724;2024-03-02T06:52:03;24.83;;;13.75;;
19891;SDS011;10108;50.142;8.724;2024-03-02T06:54:50;25.23;;;12.80;;
19891;SDS011;10108;50.142;8.724;2024-03-02T06:57:36;26.40;;;13.32;;
19891;SDS011;10108;50.142;8.724;2024-03-02T07:00:23;28.67;;;13.82;;
19891;SDS011;10108;50.142;8.724;2024-03-02T07:03:10;23.40;;;13.40;;
19891;SDS011;10108;50.142;8.724;2024-03-02T07:05:56;25.13;;;13.35;;
19891;SDS011;10108;50.142;8.724;2024-03-02T07:08:43;24.95;;;13.43;;
19891;SDS011;10108;50.142;8.724;2024-03-02T07:11:29;26.80;;;13.60;;
19891;SDS011;10108;50.142;8.724;2024-03-02T07:14:16;26.83;;;14.48;;
19891;SDS011;10108;50.142;8.724;2024-03-02T07:17:03;26.20;;;14.32;;
19891;SDS011;10108;50.142;8.724;2024-03-02T07:19:49;26.15;;;14.68;;
19891;SDS011;10108;50.142;8.724;2024-03-02T07:22:36;27.48;;;13.95;;
19891;SDS011;10108;50.142;8.724;2024-03-02T07:25:23;27.45;;;13.90;;
19891;SDS011;10108;50.142;8.724;2024-03-02T07:28:09;27.67;;;14.32;;
19891;SDS011;10108;50.142;8.724;2024-03-02T07:31:02;24.02;;;13.85;;
19891;SDS011;10108;50.142;8.724;2024-03-02T07:33:50;29.75;;;15.20;;
19891;SDS011;10108;50.142;8.724;2024-03-02T07:36:37;29.70;;;15.98;;
19891;SDS011;10108;50.142;8.724;2024-03-02T07:39:25;24.88;;;14.65;;
19891;SDS011;10108;50.142;8.724;2024-03-02T07:42:11;29.55;;;14.68;;
19891;SDS011;10108;50.142;8.724;2024-03-02T07:44:58;29.83;;;15.60;;
19891;SDS011;10108;50.142;8.724;2024-03-02T07:47:44;27.55;;;13.80;;
19891;SDS011;10108;50.142;8.724;2024-03-02T07:50:31;29.88;;;15.88;;
19891;SDS011;10108;50.142;8.724;2024-03-02T07:53:20;29.73;;;16.85;;
19891;SDS011;10108;50.142;8.724;2024-03-02T07:56:07;34.83;;;20.30;;
19891;SDS011;10108;50.142;8.724;2024-03-02T07:58:53;43.40;;;24.45;;
19891;SDS011;10108;50.142;8.724;2024-03-02T08:01:40;48.28;;;27.92;;
19891;SDS011;10108;50.142;8.724;2024-03-02T08:04:27;48.25;;;29.02;;
19891;SDS011;10108;50.142;8.724;2024-03-02T08:07:14;43.88;;;26.05;;
19891;SDS011;10108;50.142;8.724;2024-03-02T08:10:00;43.70;;;25.65;;
19891;SDS011;10108;50.142;8.724;2024-03-02T08:12:47;39.05;;;23.65;;
19891;SDS011;10108;50.142;8.724;2024-03-02T08:15:33;34.30;;;18.95;;
19891;SDS011;10108;50.142;8.724;2024-03-02T08:18:19;27.48;;;16.38;;
19891;SDS011;10108;50.142;8.724;2024-03-02T08:21:06;29.10;;;16.45;;
19891;SDS011;10108;50.142;8.724;2024-03-02T08:23:53;29.90;;;15.52;;
19891;SDS011;10108;50.142;8.724;2024-03-02T08:26:40;28.25;;;16.42;;
19891;SDS011;10108;50.142;8.724;2024-03-02T08:29:26;28.08;;;15.00;;
19891;SDS011;10108;50.142;8.724;2024-03-02T08:32:13;28.88;;;15.05;;
19891;SDS011;10108;50.142;8.724;2024-03-02T08:35:00;26.88;;;15.70;;
19891;SDS011;10108;50.142;8.724;2024-03-02T08:37:47;27.65;;;14.75;;
19891;SDS011;10108;50.142;8.724;2024-03-02T08:40:33;29.35;;;15.23;;
19891;SDS011;10108;50.142;8.724;2024-03-02T08:43:20;28.38;;;14.68;;
19891;SDS011;10108;50.142;8.724;2024-03-02T08:46:08;28.40;;;16.38;;
19891;SDS011;10108;50.142;8.724;2024-03-02T08:48:55;33.08;;;15.40;;
19891;SDS011;10108;50.142;8.724;2024-03-02T08:51:43;26.20;;;13.82;;
19891;SDS011;10108;50.142;8.724;2024-03-02T08:54:45;30.40;;;14.70;;
19891;SDS011;10108;50.142;8.724;2024-03-02T08:57:32;26.52;;;14.65;;
19891;SDS011;10108;50.142;8.724;2024-03-02T09:00:19;24.60;;;13.52;;
19891;SDS011;10108;50.142;8.724;2024-03-02T09:03:06;24.45;;;13.68;;
19891;SDS011;10108;50.142;8.724;2024-03-02T09:05:53;24.23;;;14.20;;
19891;SDS011;10108;50.142;8.724;2024-03-02T09:08:39;29.35;;;14.07;;
19891;SDS011;10108;50.142;8.724;2024-03-02T09:11:26;24.88;;;13.82;;
19891;SDS011;10108;50.142;8.724;2024-03-02T09:14:13;25.73;;;13.90;;
19891;SDS011;10108;50.142;8.724;2024-03-02T09:17:00;25.30;;;13.18;;
19891;SDS011;10108;50.142;8.724;2024-03-02T09:19:47;26.60;;;14.05;;
19891;SDS011;10108;50.142;8.724;2024-03-02T09:22:33;22.60;;;13.35;;
19891;SDS011;10108;50.142;8.724;2024-03-02T09:25:20;24.92;;;13.00;;
19891;SDS011;10108;50.142;8.724;2024-03-02T09:28:06;23.30;;;13.85;;
19891;SDS011;10108;50.142;8.724;2024-03-02T09:30:53;26.42;;;14.30;;
19891;SDS011;10108;50.142;8.724;2024-03-02T09:33:39;26.77;;;14.18;;
19891;SDS011;10108;50.142;8.724;2024-03-02T09:36:26;27.60;;;14.35;;
19891;SDS011;10108;50.142;8.724;2024-03-02T09:39:13;25.35;;;14.27;;
19891;SDS011;10108;50.142;8.724;2024-03-02T09:42:00;25.70;;;14.27;;
19891;SDS011;10108;50.142;8.724;2024-03-02T09:44:47;26.92;;;13.90;;
19891;SDS011;10108;50.142;8.724;2024-03-02T09:47:34;22.70;;;13.38;;
19891;SDS011;10108;50.142;8.724;2024-03-02T09:50:20;20.30;;;12.50;;
19891;SDS011;10108;50.142;8.724;2024-03-02T09:53:07;23.58;;;12.82;;
19891;SDS011;10108;50.142;8.724;2024-03-02T09:55:54;24.17;;;12.95;;
19891;SDS011;10108;50.142;8.724;2024-03-02T09:58:41;21.98;;;12.15;;
19891;SDS011;10108;50.142;8.724;2024-03-02T10:01:28;22.98;;;12.90;;
19891;SDS011;10108;50.142;8.724;2024-03-02T10:04:14;23.70;;;11.95;;
19891;SDS011;10108;50.142;8.724;2024-03-02T10:10:11;20.50;;;11.52;;
19891;SDS011;10108;50.142;8.724;2024-03-02T10:13:06;21.70;;;11.68;;
19891;SDS011;10108;50.142;8.724;2024-03-02T10:15:54;24.35;;;12.57;;
19891;SDS011;10108;50.142;8.724;2024-03-02T10:18:40;24.13;;;11.48;;
19891;SDS011;10108;50.142;8.724;2024-03-02T10:21:27;26.38;;;12.77;;
19891;SDS011;10108;50.142;8.724;2024-03-02T10:24:13;21.60;;;11.60;;
19891;SDS011;10108;50.142;8.724;2024-03-02T10:27:00;23.20;;;12.30;;
19891;SDS011;10108;50.142;8.724;2024-03-02T10:29:46;19.23;;;11.50;;
19891;SDS011;10108;50.142;8.724;2024-03-02T10:32:33;22.92;;;11.82;;
19891;SDS011;10108;50.142;8.724;2024-03-02T10:35:20;22.33;;;11.57;;
19891;SDS011;10108;50.142;8.724;2024-03-02T10:38:08;21.23;;;12.43;;
19891;SDS011;10108;50.142;8.724;2024-03-02T10:40:57;18.77;;;11.52;;
19891;SDS011;10108;50.142;8.724;2024-03-02T10:43:45;22.98;;;12.77;;
19891;SDS011;10108;50.142;8.724;2024-03-02T10:46:33;19.85;;;11.30;;
19891;SDS011;10108;50.142;8.724;2024-03-02T10:49:22;19.30;;;11.20;;
19891;SDS011;10108;50.142;8.724;2024-03-02T10:52:10;19.60;;;11.35;;
19891;SDS011;10108;50.142;8.724;2024-03-02T10:54:56;19.23;;;11.52;;
19891;SDS011;10108;50.142;8.724;2024-03-02T10:58:01;21.30;;;11.18;;
19891;SDS011;10108;50.142;8.724;2024-03-02T11:00:52;19.85;;;11.00;;
19891;SDS011;10108;50.142;8.724;2024-03-02T11:03:39;21.30;;;11.13;;
19891;SDS011;10108;50.142;8.724;2024-03-02T11:06:28;21.98;;;11.27;;
19891;SDS011;10108;50.142;8.724;2024-03-02T11:09:14;19.95;;;10.95;;
19891;SDS011;10108;50.142;8.724;2024-03-02T11:15:09;17.45;;;10.07;;
19891;SDS011;10108;50.142;8.724;2024-03-02T11:17:57;19.17;;;9.98;;
19891;SDS011;10108;50.142;8.724;2024-03-02T11:20:44;19.13;;;10.82;;
19891;SDS011;10108;50.142;8.724;2024-03-02T11:23:32;18.75;;;10.05;;
19891;SDS011;10108;50.142;8.724;2024-03-02T11:26:22;17.00;;;9.48;;
19891;SDS011;10108;50.142;8.724;2024-03-02T11:29:14;16.55;;;8.85;;
19891;SDS011;10108;50.142;8.724;2024-03-02T11:32:22;17.10;;;8.95;;
19891;SDS011;10108;50.142;8.724;2024-03-02T11:35:09;16.50;;;8.80;;
19891;SDS011;10108;50.142;8.724;2024-03-02T11:37:56;17.35;;;9.07;;
19891;SDS011;10108;50.142;8.724;2024-03-02T11:40:44;17.40;;;9.18;;
19891;SDS011;10108;50.142;8.724;2024-03-02T11:43:31;18.10;;;8.80;;
19891;SDS011;10108;50.142;8.724;2024-03-02T11:46:19;14.88;;;8.43;;
19891;SDS011;10108;50.142;8.724;2024-03-02T11:49:08;13.98;;;7.57;;
19891;SDS011;10108;50.142;8.724;2024-03-02T11:52:00;14.50;;;7.90;;
19891;SDS011;10108;50.142;8.724;2024-03-02T11:54:47;14.48;;;7.65;;
19891;SDS011;10108;50.142;8.724;2024-03-02T11:57:34;14.27;;;7.63;;
19891;SDS011;10108;50.142;8.724;2024-03-02T12:00:21;13.23;;;6.93;;
19891;SDS011;10108;50.142;8.724;2024-03-02T12:03:08;14.20;;;7.70;;
19891;SDS011;10108;50.142;8.724;2024-03-02T12:05:58;13.63;;;7.35;;
19891;SDS011;10108;50.142;8.724;2024-03-02T12:08:45;14.55;;;7.05;;
19891;SDS011;10108;50.142;8.724;2024-03-02T12:11:32;12.98;;;7.07;;
19891;SDS011;10108;50.142;8.724;2024-03-02T12:14:18;13.45;;;7.22;;
19891;SDS011;10108;50.142;8.724;2024-03-02T12:17:05;12.35;;;6.63;;
19891;SDS011;10108;50.142;8.724;2024-03-02T12:19:51;11.32;;;6.88;;
19891;SDS011;10108;50.142;8.724;2024-03-02T12:22:38;12.68;;;7.13;;
19891;SDS011;10108;50.142;8.724;2024-03-02T12:25:25;14.27;;;7.18;;
19891;SDS011;10108;50.142;8.724;2024-03-02T12:28:13;14.50;;;7.00;;
19891;SDS011;10108;50.142;8.724;2024-03-02T12:30:59;12.07;;;6.32;;
19891;SDS011;10108;50.142;8.724;2024-03-02T12:33:46;12.77;;;6.30;;
19891;SDS011;10108;50.142;8.724;2024-03-02T12:36:39;12.18;;;5.60;;
19891;SDS011;10108;50.142;8.724;2024-03-02T12:39:27;12.55;;;6.30;;
19891;SDS011;10108;50.142;8.724;2024-03-02T12:42:13;12.52;;;6.38;;
19891;SDS011;10108;50.142;8.724;2024-03-02T12:45:00;12.93;;;6.53;;
19891;SDS011;10108;50.142;8.724;2024-03-02T12:47:46;14.35;;;7.47;;
19891;SDS011;10108;50.142;8.724;2024-03-02T12:50:33;15.50;;;7.43;;
19891;SDS011;10108;50.142;8.724;2024-03-02T12:53:19;14.43;;;7.00;;
19891;SDS011;10108;50.142;8.724;2024-03-02T12:56:08;14.23;;;5.90;;
19891;SDS011;10108;50.142;8.724;2024-03-02T12:58:55;10.55;;;5.43;;
19891;SDS011;10108;50.142;8.724;2024-03-02T13:01:49;13.13;;;6.18;;
19891;SDS011;10108;50.142;8.724;2024-03-02T13:04:40;11.65;;;5.68;;
19891;SDS011;10108;50.142;8.724;2024-03-02T13:07:26;11.43;;;5.85;;
19891;SDS011;10108;50.142;8.724;2024-03-02T13:10:14;13.23;;;6.03;;
19891;SDS011;10108;50.142;8.724;2024-03-02T13:13:01;8.75;;;4.90;;
19891;SDS011;10108;50.142;8.724;2024-03-02T13:15:47;9.65;;;4.60;;
19891;SDS011;10108;50.142;8.724;2024-03-02T13:18:34;11.75;;;4.80;;
19891;SDS011;10108;50.142;8.724;2024-03-02T13:21:20;10.48;;;4.70;;
19891;SDS011;10108;50.142;8.724;2024-03-02T13:24:06;10.27;;;4.90;;
19891;SDS011;10108;50.142;8.724;2024-03-02T13:26:53;9.85;;;5.10;;
19891;SDS011;10108;50.142;8.724;2024-03-02T13:29:42;9.10;;;4.82;;
19891;SDS011;10108;50.142;8.724;2024-03-02T13:32:28;9.77;;;4.72;;
19891;SDS011;10108;50.142;8.724;2024-03-02T13:35:15;12.10;;;5.10;;
19891;SDS011;10108;50.142;8.724;2024-03-02T13:38:01;9.63;;;5.00;;
19891;SDS011;10108;50.142;8.724;2024-03-02T13:40:48;12.25;;;5.32;;
19891;SDS011;10108;50.142;8.724;2024-03-02T13:43:38;11.48;;;5.10;;
19891;SDS011;10108;50.142;8.724;2024-03-02T13:46:25;11.52;;;4.57;;
19891;SDS011;10108;50.142;8.724;2024-03-02T13:49:12;8.43;;;4.20;;
19891;SDS011;10108;50.142;8.724;2024-03-02T13:52:07;8.80;;;4.18;;
19891;SDS011;10108;50.142;8.724;2024-03-02T13:54:58;11.35;;;4.40;;
19891;SDS011;10108;50.142;8.724;2024-03-02T13:57:45;9.32;;;3.75;;
19891;SDS011;10108;50.142;8.724;2024-03-02T14:00:33;7.68;;;3.67;;
19891;SDS011;10108;50.142;8.724;2024-03-02T14:03:19;9.82;;;4.10;;
19891;SDS011;10108;50.142;8.724;2024-03-02T14:06:06;7.68;;;4.00;;
19891;SDS011;10108;50.142;8.724;2024-03-02T14:08:52;7.65;;;3.70;;
19891;SDS011;10108;50.142;8.724;2024-03-02T14:11:39;7.35;;;3.63;;
19891;SDS011;10108;50.142;8.724;2024-03-02T14:14:25;6.57;;;3.25;;
19891;SDS011;10108;50.142;8.724;2024-03-02T14:17:12;8.38;;;3.80;;
19891;SDS011;10108;50.142;8.724;2024-03-02T14:20:01;8.25;;;4.28;;
19891;SDS011;10108;50.142;8.724;2024-03-02T14:22:48;9.85;;;4.18;;
19891;SDS011;10108;50.142;8.724;2024-03-02T14:25:35;7.45;;;4.10;;
19891;SDS011;10108;50.142;8.724;2024-03-02T14:28:21;9.05;;;4.03;;
19891;SDS011;10108;50.142;8.724;2024-03-02T14:31:07;8.82;;;3.72;;
19891;SDS011;10108;50.142;8.724;2024-03-02T14:33:54;8.32;;;3.92;;
19891;SDS011;10108;50.142;8.724;2024-03-02T14:36:41;8.27;;;4.15;;
19891;SDS011;10108;50.142;8.724;2024-03-02T14:39:29;11.10;;;5.10;;
19891;SDS011;10108;50.142;8.724;2024-03-02T14:42:20;8.88;;;4.25;;
19891;SDS011;10108;50.142;8.724;2024-03-02T14:45:07;8.55;;;3.97;;
19891;SDS011;10108;50.142;8.724;2024-03-02T14:47:53;8.35;;;4.45;;
19891;SDS011;10108;50.142;8.724;2024-03-02T14:50:40;9.90;;;3.97;;
19891;SDS011;10108;50.142;8.724;2024-03-02T14:53:27;6.13;;;3.40;;
19891;SDS011;10108;50.142;8.724;2024-03-02T14:56:14;8.60;;;3.58;;
19891;SDS011;10108;50.142;8.724;2024-03-02T14:59:00;6.25;;;3.45;;
19891;SDS011;10108;50.142;8.724;2024-03-02T15:01:47;7.70;;;3.67;;
19891;SDS011;10108;50.142;8.724;2024-03-02T15:04:34;8.05;;;3.78;;
19891;SDS011;10108;50.142;8.724;2024-03-02T15:07:21;6.72;;;3.03;;
19891;SDS011;10108;50.142;8.724;2024-03-02T15:10:07;7.05;;;3.10;;
19891;SDS011;10108;50.142;8.724;2024-03-02T15:12:54;5.53;;;3.05;;
19891;SDS011;10108;50.142;8.724;2024-03-02T15:15:40;6.75;;;2.97;;
19891;SDS011;10108;50.142;8.724;2024-03-02T15:18:27;7.20;;;3.30;;
19891;SDS011;10108;50.142;8.724;2024-03-02T15:21:13;8.35;;;2.95;;
19891;SDS011;10108;50.142;8.724;2024-03-02T15:24:00;5.20;;;3.05;;
19891;SDS011;10108;50.142;8.724;2024-03-02T15:26:46;7.35;;;3.78;;
19891;SDS011;10108;50.142;8.724;2024-03-02T15:29:33;8.50;;;4.00;;
19891;SDS011;10108;50.142;8.724;2024-03-02T15:32:19;9.88;;;4.00;;
19891;SDS011;10108;50.142;8.724;2024-03-02T15:35:06;7.32;;;3.78;;
19891;SDS011;10108;50.142;8.724;2024-03-02T15:37:53;6.35;;;3.30;;
19891;SDS011;10108;50.142;8.724;2024-03-02T15:40:39;6.10;;;2.97;;
19891;SDS011;10108;50.142;8.724;2024-03-02T15:43:26;5.75;;;2.90;;
19891;SDS011;10108;50.142;8.724;2024-03-02T15:46:12;5.65;;;2.95;;
19891;SDS011;10108;50.142;8.724;2024-03-02T15:48:59;7.30;;;3.00;;
19891;SDS011;10108;50.142;8.724;2024-03-02T15:51:48;8.20;;;3.67;;
19891;SDS011;10108;50.142;8.724;2024-03-02T15:54:35;7.15;;;3.60;;
19891;SDS011;10108;50.142;8.724;2024-03-02T15:57:21;7.10;;;3.20;;
19891;SDS011;10108;50.142;8.724;2024-03-02T16:00:09;7.18;;;3.65;;
19891;SDS011;10108;50.142;8.724;2024-03-02T16:02:58;6.40;;;3.30;;
19891;SDS011;10108;50.142;8.724;2024-03-02T16:05:45;10.45;;;3.72;;
19891;SDS011;10108;50.142;8.724;2024-03-02T16:08:31;6.93;;;3.50;;
19891;SDS011;10108;50.142;8.724;2024-03-02T16:11:18;7.47;;;3.80;;
19891;SDS011;10108;50.142;8.724;2024-03-02T16:14:04;8.18;;;3.97;;
19891;SDS011;10108;50.142;8.724;2024-03-02T16:16:51;7.45;;;3.50;;
19891;SDS011;10108;50.142;8.724;2024-03-02T16:19:37;6.35;;;3.35;;
19891;SDS011;10108;50.142;8.724;2024-03-02T16:22:26;6.13;;;3.30;;
19891;SDS011;10108;50.142;8.724;2024-03-02T16:25:14;8.25;;;3.22;;
19891;SDS011;10108;50.142;8.724;2024-03-02T16:28:01;5.82;;;3.33;;
19891;SDS011;10108;50.142;8.724;2024-03-02T16:30:49;8.43;;;3.90;;
19891;SDS011;10108;50.142;8.724;2024-03-02T16:33:35;10.82;;;4.18;;
19891;SDS011;10108;50.142;8.724;2024-03-02T16:36:22;7.03;;;3.70;;